Reek, Netherlands
Current Conditions -  °F | °C
As of 7:25 PM on Monday 20 Oct 2014 (Local Time) from EHVK Reporting Station
Broken Clouds Broken Clouds  
Wind Chill: 14°   Ceiling: 6300
Heat Index: 14°   Visibility: 6mi
Dew Point: 10°   Wind: 7mph
Humidity: 77%   Direction: 230°SW
Pressure: 29.94"   Gusts: NA
Location:  51.75°N, 5.68°E
Report Text: EHVK 201725Z AUTO 23006KT 9999 FEW040 SCT051 BKN063 14/10 Q1014 BLU
Loading
Personal Weather Stations






























Interactive Weather Map
Tropical Storm Tracking
New forecast layout! Learn more

10-Day Weather Forecast

Advertisements
Track Severe Weather on mobile